createdAt,value
2023-11-29T06:32:44.299Z,2.21
2023-11-29T06:37:56.890Z,2.36
2023-11-29T06:43:03.879Z,2.50
2023-11-29T06:48:09.627Z,2.45
2023-11-29T06:53:12.888Z,2.64
2023-11-29T06:58:21.751Z,2.70
2023-11-29T07:03:27.907Z,2.68
2023-11-29T07:08:32.816Z,2.53
2023-11-29T07:13:36.392Z,2.67
2023-11-29T07:18:39.429Z,2.81
2023-11-29T07:23:42.439Z,2.72
2023-11-29T07:28:46.620Z,2.66
2023-11-29T07:33:49.476Z,2.86
2023-11-29T07:38:52.485Z,3.24
2023-11-29T07:43:55.305Z,3.30
2023-11-29T07:49:00.251Z,3.20
2023-11-29T07:54:04.696Z,3.36
2023-11-29T07:59:07.464Z,3.51
2023-11-29T08:04:10.358Z,3.76
2023-11-29T08:09:13.777Z,3.85
2023-11-29T08:14:16.530Z,3.76
2023-11-29T08:19:19.263Z,3.95
2023-11-29T08:24:22.025Z,4.04
2023-11-29T08:29:24.789Z,4.29
2023-11-29T08:34:27.575Z,4.32
2023-11-29T08:39:30.398Z,4.48
2023-11-29T08:44:36.063Z,4.39
2023-11-29T08:49:38.962Z,4.65
2023-11-29T08:54:41.850Z,4.81
2023-11-29T08:59:45.279Z,4.51
2023-11-29T09:04:48.115Z,4.44
2023-11-29T09:09:50.886Z,4.55
2023-11-29T09:14:57.535Z,4.59
2023-11-29T09:20:01.517Z,4.52
2023-11-29T09:25:07.503Z,4.60
2023-11-29T09:30:11.677Z,4.48
2023-11-29T09:35:14.535Z,4.54
2023-11-29T09:40:17.643Z,4.56
2023-11-29T09:45:26.954Z,4.61
2023-11-29T09:50:29.833Z,4.65
2023-11-29T09:55:34.057Z,4.57
2023-11-29T10:00:37.582Z,4.69
2023-11-29T10:05:48.789Z,4.82
2023-11-29T10:10:54.754Z,4.92
2023-11-29T10:15:57.502Z,4.76
2023-11-29T10:21:07.052Z,4.81
2023-11-29T10:26:12.617Z,4.98
2023-11-29T10:31:16.634Z,4.98
2023-11-29T10:36:22.981Z,4.99
2023-11-29T10:41:29.420Z,5.11
2023-11-29T10:46:36.111Z,5.40
2023-11-29T10:51:40.386Z,5.43
2023-11-29T10:56:44.537Z,5.37
2023-11-29T11:01:48.338Z,5.45
2023-11-29T11:06:51.257Z,5.49
2023-11-29T11:11:54.075Z,5.41
2023-11-29T11:17:04.925Z,5.61
2023-11-29T11:22:13.117Z,5.61
2023-11-29T11:27:16.819Z,5.65
2023-11-29T11:32:49.642Z,5.46
2023-11-29T11:37:59.938Z,5.57
2023-11-29T11:43:03.430Z,5.44
2023-11-29T11:48:07.766Z,5.48
2023-11-29T11:53:10.749Z,5.52
2023-11-29T11:58:15.990Z,5.75
2023-11-29T12:03:18.596Z,5.90
2023-11-29T12:08:21.465Z,5.90
2023-11-29T12:13:24.183Z,5.81
2023-11-29T12:18:27.024Z,5.74
2023-11-29T12:23:30.662Z,5.78
2023-11-29T12:28:34.265Z,5.86
2023-11-29T12:33:38.893Z,5.81
2023-11-29T12:38:41.961Z,5.89
2023-11-29T12:43:44.652Z,5.81
2023-11-29T12:48:47.473Z,5.80
2023-11-29T12:53:50.339Z,5.76
2023-11-29T12:58:53.176Z,5.71
2023-11-29T13:03:56.651Z,5.66
2023-11-29T13:09:00.292Z,5.73
2023-11-29T13:14:03.741Z,5.84
2023-11-29T13:19:06.480Z,5.92
2023-11-29T13:24:09.339Z,5.98
2023-11-29T13:29:12.095Z,5.96
2023-11-29T13:34:14.821Z,6.00
2023-11-29T13:39:17.446Z,6.03
2023-11-29T13:44:21.084Z,6.04
2023-11-29T13:49:24.007Z,6.02
2023-11-29T13:54:26.882Z,5.98
2023-11-29T13:59:29.677Z,6.01
2023-11-29T14:04:32.602Z,5.97
2023-11-29T14:09:36.842Z,5.98
2023-11-29T14:14:39.744Z,5.94
2023-11-29T14:19:42.520Z,5.92
2023-11-29T14:24:45.200Z,5.88
2023-11-29T14:29:47.924Z,5.86
2023-11-29T14:34:50.598Z,5.84
2023-11-29T14:39:53.354Z,5.88
2023-11-29T14:44:57.063Z,5.79
2023-11-29T14:50:00.245Z,5.79
2023-11-29T14:55:03.694Z,5.75
2023-11-29T15:00:07.356Z,5.70
2023-11-29T15:05:11.543Z,5.67
2023-11-29T15:10:14.237Z,5.66
2023-11-29T15:15:17.054Z,5.64
2023-11-29T15:20:19.750Z,5.61
2023-11-29T15:25:22.614Z,5.59
2023-11-29T15:30:25.464Z,5.61
2023-11-29T15:35:29.015Z,5.59
2023-11-29T15:40:34.420Z,5.59
2023-11-29T15:45:37.211Z,5.58
2023-11-29T15:50:39.957Z,5.52
2023-11-29T15:55:42.728Z,5.59
2023-11-29T16:00:45.458Z,5.49
2023-11-29T16:05:50.787Z,5.47
2023-11-29T16:10:53.285Z,5.42
2023-11-29T16:15:55.980Z,5.34
2023-11-29T16:20:58.769Z,5.34
2023-11-29T16:26:02.790Z,5.32
2023-11-29T16:31:06.355Z,5.28
2023-11-29T16:36:09.565Z,5.35
2023-11-29T16:41:12.436Z,5.36
2023-11-29T16:46:16.098Z,5.40
2023-11-29T16:51:19.597Z,5.45
2023-11-29T16:56:22.270Z,5.47
2023-11-29T17:01:27.254Z,5.51
2023-11-29T17:06:30.150Z,5.54
2023-11-29T17:11:32.959Z,5.47
2023-11-29T17:16:35.648Z,5.51
2023-11-29T17:21:38.815Z,5.53
2023-11-29T17:26:43.682Z,5.55
2023-11-29T17:31:46.425Z,5.64
2023-11-29T17:36:49.886Z,5.61
2023-11-29T17:41:55.529Z,5.74
2023-11-29T17:46:58.463Z,5.69
2023-11-29T17:52:01.219Z,5.73
2023-11-29T17:57:04.183Z,5.69
2023-11-29T18:02:09.714Z,5.72
2023-11-29T18:07:12.411Z,5.69
2023-11-29T18:12:15.254Z,5.63
2023-11-29T18:17:18.019Z,5.64
2023-11-29T18:22:20.826Z,5.75
2023-11-29T18:27:23.525Z,5.70
2023-11-29T18:32:26.621Z,5.67
2023-11-29T18:37:29.419Z,5.67
2023-11-29T18:42:32.790Z,5.63
2023-11-29T18:47:35.620Z,5.67
2023-11-29T18:52:38.415Z,5.68
2023-11-29T18:57:43.457Z,5.58
2023-11-29T19:02:46.695Z,5.66
2023-11-29T19:07:49.586Z,5.64
2023-11-29T19:12:52.257Z,5.67
2023-11-29T19:17:55.177Z,5.75
2023-11-29T19:22:57.853Z,5.80
2023-11-29T19:28:00.688Z,5.80
2023-11-29T19:33:03.533Z,5.79
2023-11-29T19:38:06.370Z,5.74
2023-11-29T19:43:09.256Z,5.73
2023-11-29T19:48:12.028Z,5.73
2023-11-29T19:53:14.740Z,5.73
2023-11-29T19:58:23.824Z,5.71
2023-11-29T20:03:33.112Z,5.66
2023-11-29T20:08:35.863Z,5.64
2023-11-29T20:13:38.984Z,5.60
2023-11-29T20:18:43.117Z,5.56
2023-11-29T20:23:46.180Z,5.56
2023-11-29T20:28:49.109Z,5.48
2023-11-29T20:33:52.444Z,5.50
2023-11-29T20:38:55.607Z,5.53
2023-11-29T20:43:58.344Z,5.45
2023-11-29T20:49:01.027Z,5.43
2023-11-29T20:54:03.960Z,5.49
2023-11-29T20:59:06.907Z,5.51
2023-11-29T21:04:11.904Z,5.50
2023-11-29T21:09:15.995Z,5.52
2023-11-29T21:14:18.724Z,5.49
2023-11-29T21:19:21.872Z,5.51
2023-11-29T21:24:24.684Z,5.52
2023-11-29T21:29:27.415Z,5.51
2023-11-29T21:34:30.241Z,5.45
2023-11-29T21:39:32.901Z,5.39
2023-11-29T21:44:35.965Z,5.34
2023-11-29T21:49:38.854Z,5.30
2023-11-29T21:54:41.662Z,5.26
2023-11-29T21:59:47.424Z,5.27
2023-11-29T22:04:51.132Z,5.28
2023-11-29T22:09:53.779Z,5.29
2023-11-29T22:14:56.648Z,5.26
2023-11-29T22:19:59.583Z,5.27
2023-11-29T22:25:02.513Z,5.23
2023-11-29T22:30:07.754Z,5.24
2023-11-29T22:35:10.839Z,5.20
2023-11-29T22:40:13.575Z,5.15
2023-11-29T22:45:16.301Z,5.13
2023-11-29T22:50:18.925Z,5.22
2023-11-29T22:55:21.676Z,5.24
2023-11-29T23:00:24.503Z,5.24
2023-11-29T23:05:27.174Z,5.29
2023-11-29T23:10:29.844Z,5.22
2023-11-29T23:15:32.710Z,5.26
2023-11-29T23:20:35.401Z,5.07
2023-11-29T23:25:38.074Z,5.21
2023-11-29T23:30:40.800Z,5.29
2023-11-29T23:35:43.771Z,5.25
2023-11-29T23:40:46.435Z,5.28
2023-11-29T23:45:49.048Z,5.39
2023-11-29T23:50:51.682Z,5.45
2023-11-29T23:55:54.381Z,5.48
